createdAt,value
2022-10-12T00:00:20.245Z,12.70
2022-10-12T00:02:46.801Z,12.70
2022-10-12T00:05:13.337Z,12.60
2022-10-12T00:07:40.351Z,12.70
2022-10-12T00:10:07.335Z,12.70
2022-10-12T00:12:34.117Z,12.60
2022-10-12T00:15:00.705Z,12.60
2022-10-12T00:17:27.232Z,12.60
2022-10-12T00:19:53.822Z,12.50
2022-10-12T00:22:20.325Z,12.50
2022-10-12T00:24:46.969Z,12.50
2022-10-12T00:27:13.636Z,12.50
2022-10-12T00:29:40.330Z,12.50
2022-10-12T00:32:06.930Z,12.40
2022-10-12T00:34:33.492Z,12.40
2022-10-12T00:37:00.071Z,12.40
2022-10-12T00:39:26.576Z,12.30
2022-10-12T00:41:53.114Z,12.30
2022-10-12T00:44:39.929Z,12.30
2022-10-12T00:47:09.821Z,12.30
2022-10-12T00:49:36.991Z,12.30
2022-10-12T00:52:06.653Z,12.30
2022-10-12T00:54:37.133Z,12.30
2022-10-12T00:57:04.959Z,12.20
2022-10-12T00:59:37.525Z,12.20
2022-10-12T01:02:04.044Z,12.20
2022-10-12T01:04:31.828Z,12.20
2022-10-12T01:06:58.887Z,12.20
2022-10-12T01:09:25.934Z,12.20
2022-10-12T01:11:52.467Z,12.10
2022-10-12T01:14:19.216Z,12.10
2022-10-12T01:16:53.511Z,12.20
2022-10-12T01:19:38.469Z,12.10
2022-10-12T01:22:07.057Z,12.10
2022-10-12T01:24:41.538Z,12.10
2022-10-12T01:27:15.840Z,12.00
2022-10-12T01:30:02.180Z,12.00
2022-10-12T01:32:28.688Z,11.90
2022-10-12T01:35:04.061Z,11.90
2022-10-12T01:37:30.596Z,11.90
2022-10-12T01:39:58.291Z,11.90
2022-10-12T01:42:29.758Z,11.80
2022-10-12T01:45:22.695Z,11.80
2022-10-12T01:47:52.397Z,11.70
2022-10-12T01:53:19.485Z,11.70
2022-10-12T01:55:51.288Z,11.60
2022-10-12T01:58:44.305Z,11.50
2022-10-12T02:01:21.388Z,11.50
2022-10-12T02:03:47.985Z,11.50
2022-10-12T02:06:22.710Z,11.50
2022-10-12T02:08:49.200Z,11.40
2022-10-12T02:11:17.168Z,11.30
2022-10-12T02:13:54.562Z,11.40
2022-10-12T02:16:25.664Z,11.30
2022-10-12T02:18:54.380Z,11.30
2022-10-12T02:21:22.987Z,11.30
2022-10-12T02:23:50.774Z,11.20
2022-10-12T02:26:17.721Z,11.20
2022-10-12T02:28:45.026Z,11.20
2022-10-12T02:31:11.782Z,11.20
2022-10-12T02:33:56.751Z,11.20
2022-10-12T02:36:33.351Z,11.10
2022-10-12T02:39:02.035Z,11.10
2022-10-12T02:41:30.741Z,11.00
2022-10-12T02:44:01.624Z,11.00
2022-10-12T02:46:29.037Z,11.00
2022-10-12T02:48:56.863Z,10.90
2022-10-12T02:51:23.530Z,10.90
2022-10-12T02:53:50.304Z,10.80
2022-10-12T02:56:16.823Z,10.80
2022-10-12T02:58:44.175Z,10.70
2022-10-12T03:01:11.013Z,10.70
2022-10-12T03:03:37.585Z,10.70
2022-10-12T03:06:04.505Z,10.60
2022-10-12T03:08:31.137Z,10.50
2022-10-12T03:11:01.434Z,10.60
2022-10-12T03:13:28.057Z,10.60
2022-10-12T03:15:54.571Z,10.50
2022-10-12T03:18:21.076Z,10.40
2022-10-12T03:20:48.069Z,10.40
2022-10-12T03:23:14.567Z,10.40
2022-10-12T03:25:41.706Z,10.30
2022-10-12T03:28:08.219Z,10.30
2022-10-12T03:30:34.745Z,10.30
2022-10-12T03:33:01.264Z,10.30
2022-10-12T03:35:27.787Z,10.20
2022-10-12T03:37:54.317Z,10.20
2022-10-12T03:40:20.954Z,10.20
2022-10-12T03:42:47.521Z,10.20
2022-10-12T03:45:14.061Z,10.10
2022-10-12T03:47:40.943Z,10.10
2022-10-12T03:50:08.166Z,10.00
2022-10-12T03:52:34.677Z,10.00
2022-10-12T03:55:01.315Z,9.90
2022-10-12T03:57:27.945Z,9.90
2022-10-12T03:59:54.503Z,9.90
2022-10-12T04:02:21.111Z,10.30
2022-10-12T04:04:47.648Z,9.90
2022-10-12T04:07:14.232Z,9.80
2022-10-12T04:09:40.803Z,9.80
2022-10-12T04:12:07.477Z,9.80
2022-10-12T04:14:34.020Z,9.80
2022-10-12T04:17:00.537Z,9.70
2022-10-12T04:19:27.058Z,9.70
2022-10-12T04:21:53.633Z,9.70
2022-10-12T04:24:20.189Z,9.60
2022-10-12T04:26:46.753Z,9.60
2022-10-12T04:29:13.914Z,9.50
2022-10-12T04:31:40.922Z,9.50
2022-10-12T04:34:08.700Z,9.50
2022-10-12T04:36:35.537Z,9.50
2022-10-12T04:39:02.108Z,9.50
2022-10-12T04:41:28.910Z,9.40
2022-10-12T04:43:55.560Z,9.40
2022-10-12T04:46:22.203Z,9.40
2022-10-12T04:48:48.759Z,9.40
2022-10-12T04:51:15.357Z,9.30
2022-10-12T04:53:41.917Z,9.30
2022-10-12T04:56:08.820Z,9.30
2022-10-12T04:58:35.399Z,9.30
2022-10-12T05:01:02.084Z,9.30
2022-10-12T05:03:28.677Z,9.30
2022-10-12T05:05:55.227Z,9.30
2022-10-12T05:08:21.909Z,9.30
2022-10-12T05:10:48.645Z,9.30
2022-10-12T05:13:15.415Z,9.30
2022-10-12T05:15:42.731Z,9.30
2022-10-12T05:18:09.431Z,9.30
2022-10-12T05:20:36.018Z,9.40
2022-10-12T05:23:02.614Z,9.40
2022-10-12T05:25:29.606Z,9.50
2022-10-12T05:27:56.446Z,9.50
2022-10-12T05:30:23.125Z,9.50
2022-10-12T05:32:49.738Z,9.40
2022-10-12T05:35:16.238Z,9.60
2022-10-12T05:37:42.738Z,9.60
2022-10-12T05:40:09.521Z,9.60
2022-10-12T05:42:36.390Z,9.70
2022-10-12T05:47:54.124Z,9.80
2022-10-12T05:50:21.342Z,9.80
2022-10-12T05:52:48.078Z,9.90
2022-10-12T05:55:14.678Z,10.00
2022-10-12T05:57:41.172Z,10.00
2022-10-12T06:00:08.676Z,10.00
2022-10-12T06:02:35.691Z,10.10
2022-10-12T06:05:02.669Z,10.10
2022-10-12T06:07:29.221Z,10.20
2022-10-12T06:09:55.782Z,10.20
2022-10-12T06:12:23.982Z,10.30
2022-10-12T06:14:50.545Z,10.40
2022-10-12T06:17:17.055Z,10.40
2022-10-12T06:19:43.589Z,10.50
2022-10-12T06:22:10.169Z,10.50
2022-10-12T06:24:37.407Z,10.60
2022-10-12T06:27:04.482Z,10.60
2022-10-12T06:29:31.230Z,10.70
2022-10-12T06:31:58.142Z,10.80
2022-10-12T06:34:24.668Z,10.80
2022-10-12T06:36:51.205Z,10.90
2022-10-12T06:39:17.721Z,10.90
2022-10-12T06:41:44.267Z,11.00
2022-10-12T06:44:10.801Z,11.00
2022-10-12T06:46:37.304Z,11.00
2022-10-12T06:49:03.843Z,11.00
2022-10-12T06:51:30.462Z,11.10
2022-10-12T06:53:56.988Z,10.80
2022-10-12T06:56:23.542Z,11.20
2022-10-12T06:58:56.320Z,11.20
2022-10-12T07:01:22.965Z,11.30
2022-10-12T07:03:49.652Z,11.40
2022-10-12T07:06:16.256Z,11.50
2022-10-12T07:08:42.811Z,11.60
2022-10-12T07:11:11.097Z,11.60
2022-10-12T07:13:37.669Z,11.70
2022-10-12T07:16:04.557Z,11.80
2022-10-12T07:18:31.424Z,11.80
2022-10-12T07:21:02.401Z,11.90
2022-10-12T07:23:32.410Z,12.00
2022-10-12T07:25:59.084Z,12.10
2022-10-12T07:28:26.047Z,12.10
2022-10-12T07:33:42.824Z,12.30
2022-10-12T07:36:21.247Z,12.50
2022-10-12T07:38:48.887Z,12.80
2022-10-12T07:41:15.769Z,13.10
2022-10-12T07:43:43.052Z,13.40
2022-10-12T07:46:10.041Z,13.80
2022-10-12T07:48:37.739Z,14.20
2022-10-12T07:51:08.298Z,14.50
2022-10-12T07:53:35.433Z,14.80
2022-10-12T07:56:02.611Z,15.30
2022-10-12T07:58:29.196Z,15.60
2022-10-12T08:00:55.709Z,15.70
2022-10-12T08:03:22.248Z,15.60
2022-10-12T08:05:48.741Z,15.60
2022-10-12T08:08:15.378Z,15.80
2022-10-12T08:10:41.892Z,15.90
2022-10-12T08:13:08.402Z,16.60
2022-10-12T08:15:34.905Z,17.60
2022-10-12T08:18:01.429Z,18.40
2022-10-12T08:20:27.952Z,18.70
2022-10-12T08:22:54.901Z,19.10
2022-10-12T08:25:21.412Z,19.70
2022-10-12T08:27:48.031Z,20.20
2022-10-12T08:30:14.569Z,20.60
2022-10-12T08:32:41.171Z,21.00
2022-10-12T08:35:07.755Z,21.50
2022-10-12T08:37:34.303Z,21.50
2022-10-12T08:40:03.363Z,22.00
2022-10-12T08:42:39.671Z,22.20
2022-10-12T08:45:18.200Z,22.80
2022-10-12T08:47:51.505Z,23.40
2022-10-12T08:50:38.315Z,24.00
2022-10-12T08:53:06.925Z,23.40
2022-10-12T08:55:39.447Z,23.20
2022-10-12T08:58:10.696Z,23.90
2022-10-12T09:00:38.727Z,24.40
2022-10-12T09:03:14.327Z,25.50
2022-10-12T09:05:44.105Z,25.10
2022-10-12T09:08:14.918Z,24.00
2022-10-12T09:10:46.432Z,23.60
2022-10-12T09:13:37.029Z,24.10
2022-10-12T09:16:06.003Z,25.50
2022-10-12T09:18:34.931Z,26.40
2022-10-12T09:21:06.216Z,27.10
2022-10-12T09:23:39.879Z,27.30
2022-10-12T09:26:17.821Z,26.90
2022-10-12T09:28:54.577Z,26.10
2022-10-12T09:31:30.568Z,26.90
2022-10-12T09:33:58.225Z,27.70
2022-10-12T09:36:26.534Z,28.40
2022-10-12T09:38:53.382Z,28.60
2022-10-12T09:41:24.012Z,29.20
2022-10-12T09:43:52.266Z,29.70
2022-10-12T09:46:22.986Z,30.10
2022-10-12T09:48:56.510Z,29.80
2022-10-12T09:51:23.226Z,29.60
2022-10-12T09:53:54.116Z,30.20
2022-10-12T09:56:29.684Z,30.90
2022-10-12T09:58:58.567Z,31.30
2022-10-12T10:01:26.659Z,31.50
2022-10-12T10:04:10.162Z,31.50
2022-10-12T10:06:38.115Z,31.90
2022-10-12T10:09:04.772Z,32.30
2022-10-12T10:11:31.611Z,32.40
2022-10-12T10:13:59.046Z,32.70
2022-10-12T10:16:26.326Z,33.20
2022-10-12T10:18:52.812Z,33.40
2022-10-12T10:21:27.621Z,32.80
2022-10-12T10:23:55.802Z,33.20
2022-10-12T10:26:24.180Z,33.20
2022-10-12T10:28:56.289Z,33.20
2022-10-12T10:31:27.408Z,32.70
2022-10-12T10:34:09.576Z,32.60
2022-10-12T10:36:47.038Z,32.60
2022-10-12T10:39:24.877Z,32.50
2022-10-12T10:41:53.245Z,32.60
2022-10-12T10:44:24.994Z,32.60
2022-10-12T10:46:52.129Z,32.00
2022-10-12T10:49:28.359Z,31.40
2022-10-12T10:51:57.870Z,30.90
2022-10-12T10:54:24.515Z,30.80
2022-10-12T10:56:52.697Z,30.50
2022-10-12T10:59:25.069Z,30.40
2022-10-12T11:01:55.889Z,30.40
2022-10-12T11:04:24.368Z,31.30
2022-10-12T11:06:53.566Z,31.70
2022-10-12T11:09:21.594Z,31.90
2022-10-12T11:11:51.639Z,32.30
2022-10-12T11:14:19.472Z,31.80
2022-10-12T11:16:48.988Z,30.60
2022-10-12T11:19:19.621Z,29.60
2022-10-12T11:21:50.877Z,28.50
2022-10-12T11:24:20.501Z,28.00
2022-10-12T11:26:53.368Z,27.80
2022-10-12T11:29:20.035Z,28.30
2022-10-12T11:31:56.952Z,29.10
2022-10-12T11:34:24.121Z,29.60
2022-10-12T11:37:17.716Z,30.40
2022-10-12T11:39:42.557Z,30.30
2022-10-12T11:42:22.157Z,30.90
2022-10-12T11:44:49.800Z,31.10
2022-10-12T11:47:20.670Z,30.80
2022-10-12T11:49:50.174Z,30.30
2022-10-12T11:52:17.591Z,30.80
2022-10-12T11:54:49.495Z,30.50
2022-10-12T11:57:25.918Z,29.70
2022-10-12T12:00:01.414Z,29.70
2022-10-12T12:02:38.647Z,28.80
2022-10-12T12:05:06.777Z,28.40
2022-10-12T12:07:45.657Z,27.30
2022-10-12T12:10:34.793Z,27.30
2022-10-12T12:13:11.104Z,28.10
2022-10-12T12:15:38.457Z,28.90
2022-10-12T12:18:11.684Z,29.90
2022-10-12T12:20:44.635Z,31.10
2022-10-12T12:23:21.530Z,31.10
2022-10-12T12:26:03.880Z,31.10
2022-10-12T12:28:31.432Z,31.00
2022-10-12T12:31:18.268Z,31.40
2022-10-12T12:33:47.068Z,31.80
2022-10-12T12:36:28.063Z,30.80
2022-10-12T12:38:54.765Z,29.70
2022-10-12T12:41:22.489Z,29.40
2022-10-12T12:43:48.981Z,29.90
2022-10-12T12:46:16.115Z,30.50
2022-10-12T12:48:42.718Z,30.60
2022-10-12T12:51:18.633Z,30.10
2022-10-12T12:53:48.135Z,29.60
2022-10-12T12:56:23.893Z,28.70
2022-10-12T12:58:55.460Z,28.40
2022-10-12T13:01:38.696Z,27.80
2022-10-12T13:04:11.452Z,27.70
2022-10-12T13:06:40.945Z,28.00
2022-10-12T13:09:23.591Z,28.60
2022-10-12T13:11:58.806Z,28.80
2022-10-12T13:14:31.112Z,29.00
2022-10-12T13:17:31.791Z,29.00
2022-10-12T13:19:56.562Z,28.80
2022-10-12T13:22:28.009Z,28.50
2022-10-12T13:24:58.488Z,28.20
2022-10-12T13:27:34.205Z,28.50
2022-10-12T13:30:08.223Z,28.40
2022-10-12T13:32:44.691Z,28.50
2022-10-12T13:35:25.791Z,28.10
2022-10-12T13:38:06.026Z,27.50
2022-10-12T13:40:40.433Z,27.00
2022-10-12T13:43:22.399Z,26.40
2022-10-12T13:45:48.969Z,26.40
2022-10-12T13:48:39.790Z,26.10
2022-10-12T13:51:20.204Z,25.80
2022-10-12T13:53:46.751Z,26.00
2022-10-12T13:56:15.439Z,25.70
2022-10-12T13:58:42.105Z,25.70
2022-10-12T14:01:10.855Z,25.50
2022-10-12T14:03:39.128Z,25.50
2022-10-12T14:06:06.502Z,25.40
2022-10-12T14:08:35.131Z,25.20
2022-10-12T14:11:02.183Z,25.20
2022-10-12T14:13:32.666Z,25.10
2022-10-12T14:16:00.240Z,25.00
2022-10-12T14:18:38.820Z,24.80
2022-10-12T14:21:17.437Z,24.70
2022-10-12T14:23:45.500Z,24.50
2022-10-12T14:26:21.190Z,24.20
2022-10-12T14:28:47.874Z,24.10
2022-10-12T14:31:14.437Z,23.90
2022-10-12T14:33:41.007Z,23.90
2022-10-12T14:36:15.673Z,23.70
2022-10-12T14:38:42.190Z,23.50
2022-10-12T14:41:27.626Z,23.20
2022-10-12T14:44:05.298Z,23.10
2022-10-12T14:46:35.632Z,23.10
2022-10-12T14:49:02.291Z,22.80
2022-10-12T14:51:28.986Z,22.70
2022-10-12T14:54:02.745Z,22.70
2022-10-12T14:56:29.342Z,22.30
2022-10-12T14:58:55.951Z,22.40
2022-10-12T15:01:23.069Z,22.20
2022-10-12T15:03:49.666Z,22.10
2022-10-12T15:06:16.672Z,22.00
2022-10-12T15:08:43.671Z,21.80
2022-10-12T15:11:11.602Z,21.60
2022-10-12T15:13:38.406Z,21.50
2022-10-12T15:16:10.253Z,21.30
2022-10-12T15:18:36.757Z,21.20
2022-10-12T15:21:04.783Z,21.10
2022-10-12T15:23:31.594Z,21.00
2022-10-12T15:26:00.296Z,20.70
2022-10-12T15:28:29.768Z,20.50
2022-10-12T15:31:17.600Z,20.20
2022-10-12T15:33:43.481Z,20.10
2022-10-12T15:36:10.046Z,19.90
2022-10-12T15:38:36.598Z,19.70
2022-10-12T15:41:03.477Z,19.40
2022-10-12T15:43:31.317Z,19.40
2022-10-12T15:45:58.813Z,19.20
2022-10-12T15:48:27.710Z,19.00
2022-10-12T15:50:54.438Z,19.00
2022-10-12T15:53:24.764Z,18.80
2022-10-12T15:55:52.283Z,18.60
2022-10-12T15:58:18.827Z,18.50
2022-10-12T16:00:45.412Z,18.30
2022-10-12T16:03:17.437Z,18.10
2022-10-12T16:05:46.231Z,18.00
2022-10-12T16:08:12.960Z,17.80
2022-10-12T16:10:40.469Z,17.70
2022-10-12T16:13:07.975Z,17.60
2022-10-12T16:15:35.617Z,17.40
2022-10-12T16:18:03.111Z,17.40
2022-10-12T16:20:31.133Z,17.30
2022-10-12T16:22:58.209Z,17.10
2022-10-12T16:25:25.156Z,17.00
2022-10-12T16:27:52.365Z,16.90
2022-10-12T16:30:19.387Z,16.80
2022-10-12T16:32:45.963Z,16.60
2022-10-12T16:35:14.774Z,16.60
2022-10-12T16:37:41.363Z,16.50
2022-10-12T16:40:08.443Z,16.40
2022-10-12T16:42:35.513Z,16.30
2022-10-12T16:45:02.171Z,16.30
2022-10-12T16:47:28.734Z,16.20
2022-10-12T16:49:55.625Z,16.00
2022-10-12T16:52:25.454Z,16.00
2022-10-12T16:54:52.587Z,15.80
2022-10-12T16:57:19.273Z,15.70
2022-10-12T16:59:46.318Z,15.60
2022-10-12T17:02:13.573Z,15.60
2022-10-12T17:04:40.266Z,15.50
2022-10-12T17:07:06.850Z,15.40
2022-10-12T17:09:33.468Z,15.40
2022-10-12T17:12:00.007Z,15.20
2022-10-12T17:14:26.632Z,15.10
2022-10-12T17:16:57.030Z,15.00
2022-10-12T17:19:31.811Z,15.00
2022-10-12T17:21:59.427Z,14.90
2022-10-12T17:24:28.178Z,14.80
2022-10-12T17:26:54.754Z,14.80
2022-10-12T17:29:21.826Z,14.70
2022-10-12T17:31:48.964Z,14.70
2022-10-12T17:34:22.823Z,14.60
2022-10-12T17:36:49.664Z,14.50
2022-10-12T17:39:16.205Z,14.40
2022-10-12T17:41:43.270Z,14.30
2022-10-12T17:44:11.283Z,14.20
2022-10-12T17:46:41.540Z,14.20
2022-10-12T17:49:11.090Z,14.10
2022-10-12T17:51:37.668Z,14.10
2022-10-12T17:54:04.513Z,14.00
2022-10-12T17:56:31.255Z,13.90
2022-10-12T17:58:58.666Z,13.90
2022-10-12T18:01:25.867Z,13.90
2022-10-12T18:03:55.173Z,13.90
2022-10-12T18:06:23.120Z,13.80
2022-10-12T18:08:50.253Z,13.80
2022-10-12T18:11:17.669Z,13.80
2022-10-12T18:13:45.463Z,13.70
2022-10-12T18:16:12.084Z,13.70
2022-10-12T18:18:39.166Z,13.60
2022-10-12T18:21:06.888Z,13.50
2022-10-12T18:23:33.440Z,13.50
2022-10-12T18:26:07.074Z,13.50
2022-10-12T18:28:34.613Z,13.40
2022-10-12T18:31:01.368Z,13.40
2022-10-12T18:33:28.350Z,13.40
2022-10-12T18:35:54.859Z,13.40
2022-10-12T18:38:21.599Z,13.30
2022-10-12T18:40:48.237Z,13.30
2022-10-12T18:43:15.217Z,13.30
2022-10-12T18:45:45.135Z,13.30
2022-10-12T18:48:12.797Z,13.30
2022-10-12T18:50:39.612Z,13.30
2022-10-12T18:53:06.393Z,13.20
2022-10-12T18:55:36.139Z,13.10
2022-10-12T18:58:02.692Z,13.10
2022-10-12T19:00:29.486Z,13.00
2022-10-12T19:02:56.473Z,13.00
2022-10-12T19:05:23.667Z,12.90
2022-10-12T19:07:50.649Z,12.90
2022-10-12T19:10:17.227Z,12.90
2022-10-12T19:12:45.854Z,12.90
2022-10-12T19:15:12.683Z,12.90
2022-10-12T19:17:39.205Z,12.90
2022-10-12T19:20:06.161Z,12.90
2022-10-12T19:22:33.385Z,13.00
2022-10-12T19:24:59.914Z,13.00
2022-10-12T19:27:26.762Z,12.90
2022-10-12T19:29:53.267Z,12.90
2022-10-12T19:32:20.317Z,12.90
2022-10-12T19:34:49.862Z,12.90
2022-10-12T19:37:16.382Z,12.90
2022-10-12T19:39:44.927Z,12.90
2022-10-12T19:42:11.450Z,12.90
2022-10-12T19:44:37.996Z,12.90
2022-10-12T19:47:04.556Z,12.80
2022-10-12T19:49:35.752Z,12.80
2022-10-12T19:52:03.940Z,12.80
2022-10-12T19:54:34.106Z,12.70
2022-10-12T19:57:02.553Z,12.70
2022-10-12T19:59:29.071Z,12.70
2022-10-12T20:01:55.692Z,12.70
2022-10-12T20:04:22.366Z,12.80
2022-10-12T20:06:48.867Z,12.70
2022-10-12T20:09:15.426Z,12.70
2022-10-12T20:11:42.197Z,12.70
2022-10-12T20:14:09.764Z,12.70
2022-10-12T20:16:37.120Z,12.70
2022-10-12T20:19:04.625Z,12.60
2022-10-12T20:21:31.196Z,12.70
2022-10-12T20:23:57.756Z,12.70
2022-10-12T20:26:25.711Z,12.70
2022-10-12T20:28:53.146Z,12.70
2022-10-12T20:31:23.143Z,12.60
2022-10-12T20:33:51.764Z,12.70
2022-10-12T20:36:25.866Z,12.70
2022-10-12T20:38:52.553Z,12.70
2022-10-12T20:41:24.973Z,12.80
2022-10-12T20:43:55.373Z,12.80
2022-10-12T20:46:21.879Z,12.80
2022-10-12T20:48:48.454Z,12.80
2022-10-12T20:51:25.871Z,12.80
2022-10-12T20:53:52.537Z,12.80
2022-10-12T20:56:19.532Z,12.80
2022-10-12T20:58:46.301Z,12.80
2022-10-12T21:01:14.096Z,12.80
2022-10-12T21:03:41.135Z,12.80
2022-10-12T21:06:08.880Z,12.80
2022-10-12T21:08:35.628Z,12.80
2022-10-12T21:11:02.828Z,12.80
2022-10-12T21:13:29.918Z,12.80
2022-10-12T21:15:56.497Z,12.90
2022-10-12T21:18:23.188Z,12.90
2022-10-12T21:20:53.595Z,12.90
2022-10-12T21:23:20.147Z,12.90
2022-10-12T21:25:46.655Z,12.90
2022-10-12T21:28:13.490Z,12.90
2022-10-12T21:30:40.541Z,12.90
2022-10-12T21:33:07.785Z,12.90
2022-10-12T21:35:34.675Z,12.90
2022-10-12T21:38:01.579Z,12.90
2022-10-12T21:40:28.090Z,12.90
2022-10-12T21:42:54.630Z,12.80
2022-10-12T21:45:21.142Z,12.80
2022-10-12T21:47:48.004Z,12.80
2022-10-12T21:50:14.581Z,12.70
2022-10-12T21:52:41.126Z,12.70
2022-10-12T21:55:07.943Z,12.70
2022-10-12T21:57:34.412Z,12.60
2022-10-12T22:00:01.009Z,12.60
2022-10-12T22:02:27.527Z,12.50
2022-10-12T22:04:54.072Z,12.50
2022-10-12T22:07:20.636Z,12.50
2022-10-12T22:09:47.160Z,12.40
2022-10-12T22:12:13.680Z,12.40
2022-10-12T22:14:40.265Z,12.30
2022-10-12T22:17:06.825Z,12.30
2022-10-12T22:19:33.353Z,12.30
2022-10-12T22:21:59.871Z,12.30
2022-10-12T22:24:26.369Z,12.20
2022-10-12T22:26:52.908Z,12.10
2022-10-12T22:29:19.467Z,12.10
2022-10-12T22:31:46.369Z,12.10
2022-10-12T22:34:12.959Z,12.00
2022-10-12T22:36:39.523Z,11.90
2022-10-12T22:39:06.049Z,11.90
2022-10-12T22:41:32.624Z,11.80
2022-10-12T22:43:59.172Z,11.80
2022-10-12T22:46:25.828Z,11.80
2022-10-12T22:48:53.333Z,11.80
2022-10-12T22:51:28.561Z,11.80
2022-10-12T22:53:55.061Z,11.80
2022-10-12T22:56:21.606Z,11.80
2022-10-12T22:58:48.914Z,11.80
2022-10-12T23:01:16.978Z,11.80
2022-10-12T23:03:43.540Z,11.80
2022-10-12T23:06:11.110Z,11.80
2022-10-12T23:08:37.943Z,11.80
2022-10-12T23:11:05.852Z,11.70
2022-10-12T23:13:33.164Z,11.70
2022-10-12T23:16:06.860Z,11.70
2022-10-12T23:18:34.126Z,11.60
2022-10-12T23:21:03.459Z,11.60
2022-10-12T23:23:29.989Z,11.70
2022-10-12T23:26:03.919Z,11.60
2022-10-12T23:28:30.672Z,11.50
2022-10-12T23:30:57.247Z,11.50
2022-10-12T23:33:23.959Z,11.40
2022-10-12T23:36:00.640Z,11.30
2022-10-12T23:38:31.857Z,11.30
2022-10-12T23:40:58.666Z,11.30
2022-10-12T23:43:26.673Z,11.30
2022-10-12T23:45:53.877Z,11.20
2022-10-12T23:48:20.491Z,11.20
2022-10-12T23:50:47.038Z,11.20
2022-10-12T23:53:14.042Z,11.10
2022-10-12T23:55:40.566Z,11.00
2022-10-12T23:58:07.056Z,11.00
